Time;durP1;ratioP1;P1;durP2;ratioP2;P2;SDS_P1;SDS_P2;PMS_P1;PMS_P2;Temp;Humidity;BMP_temperature;BMP_pressure;BME280_temperature;BME280_humidity;BME280_pressure;Samples;Min_cycle;Max_cycle;Signal;HPM_P1;HPM_P2
2023/04/30 00:02:07;;;;;;;;;8.67;8.67;;;;;15.02;59.05;-6591.91;4996708;28;45444;-82
2023/04/30 00:04:32;;;;;;;;;6.33;6.33;;;;;15.18;58.93;-6592.81;4996969;28;45489;-82
2023/04/30 00:06:57;;;;;;;;;11.00;9.67;;;;;14.82;58.91;-6590.81;4996199;28;48224;-82
2023/04/30 00:09:23;;;;;;;;;13.00;8.00;;;;;14.34;59.13;-6588.25;4996542;28;45528;-82
2023/04/30 00:11:48;;;;;;;;;7.33;7.33;;;;;14.85;58.83;-6591.00;4996713;28;45421;-82
2023/04/30 00:14:13;;;;;;;;;7.33;7.00;;;;;15.12;59.43;-6926.88;4996379;28;45476;-82
2023/04/30 00:16:39;;;;;;;;;11.33;7.67;;;;;14.92;59.28;-6925.66;4996106;28;53643;-82
2023/04/30 00:19:04;;;;;;;;;8.33;8.33;;;;;14.91;59.30;-6925.63;4996388;28;45448;-82
2023/04/30 00:21:30;;;;;;;;;10.33;9.00;;;;;15.08;59.42;-6926.63;4996577;28;45601;-82
2023/04/30 00:23:55;;;;;;;;;5.00;5.00;;;;;14.94;59.46;-6925.81;4996720;28;45476;-82
2023/04/30 00:26:20;;;;;;;;;7.67;7.67;;;;;14.23;59.19;-6921.53;4996242;28;47171;-82
2023/04/30 00:28:46;;;;;;;;;10.00;9.00;;;;;14.09;59.78;-6920.72;4978179;28;45433;-82
2023/04/30 00:31:11;;;;;;;;;2.00;2.00;;;;;14.96;59.35;-7260.22;4996271;28;45632;-82
2023/04/30 00:33:36;;;;;;;;;8.33;7.67;;;;;15.04;59.71;-7260.69;4996595;28;45412;-82
2023/04/30 00:36:02;;;;;;;;;8.33;6.33;;;;;14.87;59.58;-7259.63;4996061;28;46377;-82
2023/04/30 00:38:27;;;;;;;;;5.00;5.00;;;;;14.90;59.69;-7259.81;4996216;28;45399;-82
2023/04/30 00:40:52;;;;;;;;;9.33;7.00;;;;;14.67;59.34;-7258.31;4996152;28;45367;-82
2023/04/30 00:43:18;;;;;;;;;11.33;9.67;;;;;14.81;59.61;-7259.19;4996097;28;45499;-83
2023/04/30 00:45:43;;;;;;;;;8.67;8.33;;;;;15.03;59.53;-7260.63;4978269;28;48440;-82
2023/04/30 00:48:09;;;;;;;;;9.00;9.00;;;;;14.96;59.57;-7260.22;4995815;28;45879;-83
2023/04/30 00:50:35;;;;;;;;;10.33;8.33;;;;;15.01;59.71;-7594.81;4996144;28;45536;-82
2023/04/30 00:53:01;;;;;;;;;10.00;7.67;;;;;14.80;59.63;-7593.31;4996280;28;45500;-82
2023/04/30 00:55:27;;;;;;;;;8.33;7.33;;;;;14.81;59.88;-7593.38;4995535;28;46116;-82
2023/04/30 00:57:53;;;;;;;;;7.00;5.00;;;;;14.65;60.00;-7592.25;4995652;28;45522;-83
2023/04/30 05:02:08;;;;;;;;;20.33;19.00;;;;;13.46;63.99;-12915.09;5202809;22;45435;-83
2023/04/30 05:04:33;;;;;;;;;17.33;16.67;;;;;13.67;64.10;-13251.53;5019029;28;46391;-83
2023/04/30 05:06:58;;;;;;;;;15.67;14.67;;;;;13.32;63.66;-13245.84;5019139;28;45553;-83
2023/04/30 05:09:23;;;;;;;;;21.67;20.00;;;;;13.62;63.91;-13250.72;5019260;28;45426;-83
2023/04/30 05:11:49;;;;;;;;;23.67;16.00;;;;;13.66;63.81;-13251.38;5019150;28;45813;-83
2023/04/30 05:14:15;;;;;;;;;19.33;16.00;;;;;13.67;63.88;-13251.47;5018994;28;45447;-83
2023/04/30 05:16:40;;;;;;;;;17.33;16.67;;;;;13.64;63.93;-13583.97;5000885;28;45460;-83
2023/04/30 05:19:06;;;;;;;;;14.00;11.33;;;;;13.60;64.24;-13583.31;5019175;28;46060;-83
2023/04/30 05:21:31;;;;;;;;;17.33;15.67;;;;;13.53;63.79;-13582.19;5018822;28;45800;-83
2023/04/30 05:23:57;;;;;;;;;15.33;15.33;;;;;13.40;63.99;-13579.97;5018284;28;46153;-83
2023/04/30 05:26:23;;;;;;;;;16.33;14.67;;;;;13.25;63.84;-13577.47;5018957;28;45548;-82
2023/04/30 05:28:49;;;;;;;;;12.00;12.00;;;;;13.48;64.24;-13581.34;5018935;28;45391;-83
2023/04/30 05:31:15;;;;;;;;;16.00;15.67;;;;;13.69;64.08;-13584.91;5018881;28;45447;-82
2023/04/30 05:33:40;;;;;;;;;13.67;13.67;;;;;13.71;63.89;-13585.25;5018750;28;47004;-83
2023/04/30 05:36:06;;;;;;;;;18.67;15.33;;;;;13.37;64.01;-13579.44;5018051;28;45602;-83
2023/04/30 05:38:32;;;;;;;;;17.33;13.33;;;;;13.38;64.08;-13579.72;5001032;28;45535;-83
2023/04/30 05:40:57;;;;;;;;;15.00;15.00;;;;;13.57;64.02;-13915.75;5018555;28;45963;-83
2023/04/30 05:43:22;;;;;;;;;15.00;14.00;;;;;13.46;64.05;-13913.91;5018670;28;46901;-83
2023/04/30 05:45:48;;;;;;;;;15.00;15.00;;;;;13.33;64.38;-14244.50;5018294;28;45489;-83
2023/04/30 05:48:13;;;;;;;;;19.00;14.00;;;;;13.42;64.31;-14246.13;5018007;28;45455;-83
2023/04/30 05:50:38;;;;;;;;;17.33;15.33;;;;;13.48;64.58;-14247.13;5018904;28;45491;-83
2023/04/30 05:53:03;;;;;;;;;17.67;15.00;;;;;13.61;64.06;-14249.41;5018405;28;45472;-83
2023/04/30 05:55:29;;;;;;;;;17.67;16.00;;;;;13.76;64.57;-14585.13;5018450;28;45558;-83
2023/04/30 05:57:55;;;;;;;;;16.00;13.33;;;;;13.74;64.78;-14584.75;5018649;28;45682;-83
2023/04/30 06:00:20;;;;;;;;;15.33;14.00;;;;;13.76;64.58;-14585.13;5018216;28;45464;-83
2023/04/30 06:02:46;;;;;;;;;18.67;15.67;;;;;13.68;64.40;-14583.63;5017986;28;46804;-83
2023/04/30 06:05:11;;;;;;;;;22.00;19.67;;;;;13.33;64.25;-14909.91;5018349;28;45364;-83
2023/04/30 06:07:37;;;;;;;;;19.00;16.33;;;;;13.51;64.73;-14913.47;5018353;28;45642;-83
2023/04/30 06:10:03;;;;;;;;;13.67;13.33;;;;;13.80;64.99;-14918.88;5018418;28;45471;-82
2023/04/30 06:12:28;;;;;;;;;16.67;16.67;;;;;13.69;64.47;-14916.75;4999973;28;48142;-83
2023/04/30 06:14:53;;;;;;;;;18.33;17.00;;;;;13.77;64.68;-14918.19;5017881;28;45587;-83
2023/04/30 06:17:19;;;;;;;;;16.67;15.67;;;;;13.45;64.62;-14912.22;5000257;28;45994;-82
2023/04/30 06:19:44;;;;;;;;;16.33;15.00;;;;;13.70;64.74;-14917.03;5018561;28;45835;-83
2023/04/30 06:22:10;;;;;;;;;12.67;10.33;;;;;13.84;64.77;-14919.56;5017942;28;45407;-83
2023/04/30 06:24:35;;;;;;;;;17.67;15.00;;;;;13.84;64.79;-15252.53;5017753;28;55563;-83
2023/04/30 06:27:01;;;;;;;;;19.67;15.00;;;;;13.84;64.44;-15252.63;5018080;28;45593;-83
2023/04/30 06:29:27;;;;;;;;;17.33;15.33;;;;;13.68;64.34;-15249.47;4999862;28;45527;-83
2023/04/30 06:31:52;;;;;;;;;13.67;13.33;;;;;13.65;64.81;-15248.97;5017751;28;46620;-83
2023/04/30 06:34:19;;;;;;;;;15.67;15.67;;;;;13.72;64.71;-15250.34;5017716;28;45431;-83
2023/04/30 06:36:44;;;;;;;;;19.67;16.00;;;;;13.89;64.75;-15253.63;5017874;28;45465;-83
2023/04/30 06:39:11;;;;;;;;;20.00;16.00;;;;;13.83;64.79;-15252.34;5000224;28;45428;-83
2023/04/30 06:41:36;;;;;;;;;20.00;17.33;;;;;13.55;64.77;-15579.78;5016928;28;46772;-83
2023/04/30 06:44:01;;;;;;;;;17.33;13.67;;;;;13.60;64.70;-15580.72;5017392;28;45383;-83
2023/04/30 06:46:26;;;;;;;;;14.67;14.67;;;;;13.71;64.61;-15583.03;5017711;28;45360;-83
2023/04/30 06:48:52;;;;;;;;;17.00;15.67;;;;;14.03;64.83;-15589.25;5017906;28;45745;-83
2023/04/30 06:51:17;;;;;;;;;14.33;14.33;;;;;14.01;64.87;-15588.94;5017320;28;48638;-83
2023/04/30 06:53:42;;;;;;;;;14.33;14.33;;;;;14.10;64.87;-15923.75;5017448;28;48988;-82
2023/04/30 06:56:08;;;;;;;;;18.33;17.33;;;;;14.14;64.80;-15924.56;5017496;28;45688;-82
2023/04/30 06:58:33;;;;;;;;;22.00;17.67;;;;;13.98;64.76;-15921.34;5017644;28;45427;-83
2023/04/30 07:00:58;;;;;;;;;20.67;17.00;;;;;14.04;65.00;-16255.59;5017110;28;45507;-82
2023/04/30 07:03:24;;;;;;;;;18.67;15.67;;;;;14.25;65.05;-16259.88;5017273;28;52434;-82
2023/04/30 07:05:50;;;;;;;;;15.67;14.33;;;;;13.93;64.56;-16253.25;5017487;28;45325;-83
2023/04/30 07:08:16;;;;;;;;;12.33;11.00;;;;;14.15;64.70;-16257.84;5017770;28;45367;-83
2023/04/30 07:10:41;;;;;;;;;14.33;14.33;;;;;14.41;64.42;-16263.22;5017102;28;46314;-82
2023/04/30 07:13:07;;;;;;;;;14.00;12.33;;;;;14.15;64.67;-16590.88;5016939;28;45417;-83
2023/04/30 07:15:32;;;;;;;;;13.00;13.00;;;;;14.59;64.53;-16600.22;5016864;28;45534;-82
2023/04/30 07:17:58;;;;;;;;;14.33;13.00;;;;;14.48;64.63;-16597.91;5017621;28;45452;-83
2023/04/30 07:20:23;;;;;;;;;18.33;15.33;;;;;14.69;64.49;-16602.41;5017073;28;46148;-82
2023/04/30 07:22:48;;;;;;;;;15.33;14.00;;;;;14.50;64.42;-16931.66;5016319;28;45434;-82
2023/04/30 07:25:14;;;;;;;;;8.00;7.67;;;;;14.74;64.72;-16936.94;5017291;28;45383;-83
2023/04/30 07:27:39;;;;;;;;;14.67;12.00;;;;;14.85;64.22;-16939.19;5016592;28;45506;-83
2023/04/30 07:30:07;;;;;;;;;16.33;14.33;;;;;14.71;64.32;-16936.28;5017013;28;46132;-82
2023/04/30 07:32:33;;;;;;;;;13.33;13.33;;;;;14.95;64.31;-16941.56;5016837;28;45622;-82
2023/04/30 07:34:59;;;;;;;;;10.33;10.33;;;;;14.62;64.26;-16934.25;5016242;28;45464;-82
2023/04/30 07:37:25;;;;;;;;;13.33;13.33;;;;;14.82;64.18;-17271.84;5016772;28;45435;-82
2023/04/30 07:39:50;;;;;;;;;12.33;9.00;;;;;15.02;64.45;-17276.47;5016760;28;45493;-82
2023/04/30 07:42:15;;;;;;;;;11.00;9.67;;;;;15.08;64.30;-17277.72;5016507;28;45453;-83
2023/04/30 07:44:40;;;;;;;;;15.33;14.00;;;;;15.14;64.00;-17279.22;5016793;28;45359;-82
2023/04/30 07:47:06;;;;;;;;;19.33;16.67;;;;;15.09;64.46;-17278.06;5017139;28;45420;-83
2023/04/30 07:49:31;;;;;;;;;13.67;13.67;;;;;15.31;64.24;-17283.03;5016409;28;45624;-82
2023/04/30 07:51:57;;;;;;;;;16.67;12.33;;;;;15.12;64.04;-17612.09;5016565;28;45531;-83
2023/04/30 07:54:22;;;;;;;;;10.00;10.00;;;;;15.44;64.16;-17619.41;5016651;28;45600;-82
2023/04/30 07:56:47;;;;;;;;;12.67;12.67;;;;;15.40;64.29;-17618.72;5016269;28;45721;-83
2023/04/30 07:59:13;;;;;;;;;12.00;12.00;;;;;15.54;64.42;-17621.88;5016472;28;46400;-82
2023/04/30 08:01:38;;;;;;;;;12.67;12.33;;;;;15.25;64.32;-17948.56;5015908;28;45422;-82
2023/04/30 08:04:04;;;;;;;;;16.33;15.00;;;;;15.50;64.35;-17954.59;5016467;28;45398;-82
2023/04/30 08:06:30;;;;;;;;;14.33;13.67;;;;;15.50;64.39;-17954.47;5016855;28;45464;-82
2023/04/30 08:08:55;;;;;;;;;15.67;12.00;;;;;15.57;64.18;-17956.28;5015722;28;46398;-83
2023/04/30 08:11:21;;;;;;;;;24.33;14.67;;;;;15.83;63.98;-17962.41;5015879;28;45474;-82
2023/04/30 08:13:46;;;;;;;;;12.33;11.00;;;;;15.60;64.01;-17956.88;5015435;28;54014;-82
2023/04/30 08:16:11;;;;;;;;;13.33;11.67;;;;;15.57;63.71;-17956.16;5016669;28;45457;-82
2023/04/30 08:18:43;;;;;;;;;18.00;15.67;;;;;15.99;63.84;-17966.16;5016108;28;50329;-83
2023/04/30 08:21:10;;;;;;;;;12.00;11.33;;;;;15.57;63.82;-17956.28;5016275;28;45728;-82
2023/04/30 08:23:35;;;;;;;;;12.67;11.00;;;;;15.66;63.75;-17958.31;5016198;28;45374;-82
2023/04/30 08:26:00;;;;;;;;;13.67;12.33;;;;;16.13;63.98;-17969.41;5015901;28;45665;-82
2023/04/30 08:28:26;;;;;;;;;11.33;10.33;;;;;16.20;63.64;-18304.94;5016051;28;46391;-82
2023/04/30 08:30:51;;;;;;;;;13.00;11.33;;;;;15.95;63.89;-18298.91;5015947;28;45454;-82
2023/04/30 08:33:16;;;;;;;;;13.67;12.00;;;;;16.14;63.54;-18303.59;5015956;28;45408;-83
2023/04/30 08:35:42;;;;;;;;;10.00;10.00;;;;;16.37;63.57;-18309.13;5016361;28;45532;-83
2023/04/30 08:38:07;;;;;;;;;18.00;15.33;;;;;16.13;63.18;-18303.34;5015909;28;46348;-82
2023/04/30 08:40:35;;;;;;;;;9.67;8.33;;;;;16.20;63.34;-18304.94;5015285;28;45360;-82
2023/04/30 08:43:08;;;;;;;;;14.33;11.00;;;;;16.23;63.28;-18639.78;5016051;28;45428;-82
2023/04/30 08:45:35;;;;;;;;;12.67;12.67;;;;;16.77;63.57;-18653.00;5016251;28;45361;-82
2023/04/30 08:48:02;;;;;;;;;16.00;12.33;;;;;16.73;63.56;-18651.84;5015585;28;46536;-82
2023/04/30 08:50:27;;;;;;;;;18.67;15.00;;;;;17.11;63.51;-18995.56;5015676;28;45768;-83
2023/04/30 08:52:53;;;;;;;;;17.67;15.67;;;;;17.27;63.47;-18999.66;5015957;28;45495;-83
2023/04/30 08:55:18;;;;;;;;;13.00;11.00;;;;;17.41;63.28;-19337.81;5015733;28;45437;-83
2023/04/30 08:57:44;;;;;;;;;13.00;11.67;;;;;17.67;62.91;-19344.47;5015668;28;45500;-82
2023/04/30 09:00:10;;;;;;;;;11.33;11.00;;;;;17.85;62.72;-19349.06;5015585;28;45459;-82
2023/04/30 09:02:40;;;;;;;;;11.33;11.33;;;;;18.30;62.71;-19695.44;5015424;28;45518;-82
2023/04/30 09:05:11;;;;;;;;;13.67;11.67;;;;;18.41;62.25;-19698.25;5016014;28;45400;-82
2023/04/30 09:07:40;;;;;;;;;10.00;10.00;;;;;18.88;61.79;-19710.69;5015323;28;47228;-83
2023/04/30 09:10:15;;;;;;;;;11.00;11.00;;;;;19.14;61.78;-19717.50;5015076;28;45383;-83
2023/04/30 09:12:43;;;;;;;;;18.00;14.67;;;;;19.46;61.11;-19725.75;5015755;28;45478;-83
2023/04/30 09:15:09;;;;;;;;;19.00;14.33;;;;;19.63;61.12;-19730.16;5015905;28;45740;-83
2023/04/30 09:17:35;;;;;;;;;12.00;12.00;;;;;19.66;60.51;-19730.84;5014931;28;46108;-83
2023/04/30 09:20:07;;;;;;;;;13.33;12.00;;;;;20.18;60.21;-19744.56;5015291;28;45532;-83
2023/04/30 09:22:33;;;;;;;;;10.00;10.00;;;;;19.87;58.97;-19400.63;5015753;28;45749;-83
2023/04/30 09:24:59;;;;;;;;;13.67;12.67;;;;;20.65;59.28;-19420.47;5015501;28;45779;-83
2023/04/30 09:27:24;;;;;;;;;11.67;11.67;;;;;20.61;58.46;-19419.44;5015232;28;46284;-83
2023/04/30 09:29:49;;;;;;;;;8.00;6.33;;;;;20.94;57.86;-19427.91;5014766;28;56901;-83
2023/04/30 09:32:15;;;;;;;;;11.67;9.00;;;;;21.20;57.57;-19434.56;5015575;28;45462;-84
2023/04/30 09:34:42;;;;;;;;;10.33;10.33;;;;;21.64;57.23;-19445.78;5015662;28;45472;-83
2023/04/30 09:37:07;;;;;;;;;13.00;10.33;;;;;22.04;57.20;-19455.81;5015142;28;46394;-83
2023/04/30 09:39:33;;;;;;;;;11.67;10.00;;;;;22.47;56.38;-19129.53;5014631;28;45457;-83
2023/04/30 09:42:09;;;;;;;;;7.67;7.00;;;;;22.83;55.35;-18463.66;5015212;28;46064;-83
2023/04/30 09:44:39;;;;;;;;;8.00;7.00;;;;;23.28;54.60;-18474.25;5015679;28;45533;-84
2023/04/30 09:47:12;;;;;;;;;8.67;8.67;;;;;23.67;54.89;-18821.44;5017473;28;47418;-83
2023/04/30 09:49:40;;;;;;;;;10.00;8.00;;;;;23.72;54.24;-18822.69;5018244;28;45613;-83
2023/04/30 09:52:07;;;;;;;;;8.33;7.67;;;;;24.28;53.27;-17821.53;5018259;28;45422;-84
2023/04/30 09:54:32;;;;;;;;;14.67;10.00;;;;;24.79;52.42;-17155.78;5018802;28;45539;-84
2023/04/30 09:57:00;;;;;;;;;10.00;8.00;;;;;25.19;52.15;-17164.53;5018283;28;47196;-84
2023/04/30 09:59:30;;;;;;;;;8.67;6.00;;;;;25.54;51.50;-16154.72;5018490;28;45563;-84
2023/04/30 10:01:59;;;;;;;;;8.33;8.00;;;;;25.78;51.02;-16159.41;5017826;28;45729;-84
2023/04/30 10:04:27;;;;;;;;;10.00;8.67;;;;;26.03;48.07;-8009.91;5018607;28;45435;-84
2023/04/30 10:06:56;;;;;;;;;8.00;6.67;;;;;26.14;49.15;-9711.22;5017849;28;45408;-84
2023/04/30 10:09:23;;;;;;;;;5.67;5.67;;;;;26.49;48.93;-8693.84;5000320;28;45781;-84
2023/04/30 10:11:49;;;;;;;;;9.00;6.67;;;;;26.44;47.20;-2563.22;5018235;28;45341;-84
2023/04/30 10:14:18;;;;;;;;;9.00;9.00;;;;;26.35;47.80;-2563.38;5017835;28;45518;-84
2023/04/30 10:17:12;;;;;;;;;9.33;9.33;;;;;26.80;47.96;-2562.69;5017940;28;46611;-84
2023/04/30 10:19:40;;;;;;;;;7.00;5.67;;;;;26.71;44.35;18138.28;5018027;28;45373;-84
2023/04/30 10:22:07;;;;;;;;;13.00;11.33;;;;;26.84;43.89;29989.94;5017679;28;45487;-85
2023/04/30 10:24:33;;;;;;;;;8.00;8.00;;;;;26.93;44.35;30639.84;5018615;28;45341;-84
2023/04/30 10:26:59;;;;;;;;;6.00;6.00;;;;;26.99;45.48;27015.78;5017808;28;45427;-85
2023/04/30 10:29:24;;;;;;;;;9.33;8.33;;;;;27.17;45.67;26739.97;5017930;28;45428;-84
2023/04/30 10:31:51;;;;;;;;;8.00;6.67;;;;;27.11;45.33;27714.78;5018032;28;45379;-84
2023/04/30 10:35:13;;;;;;;;;6.00;6.00;;;;;27.32;43.97;30290.09;5018003;28;45353;-85
2023/04/30 10:38:15;;;;;;;;;8.33;8.00;;;;;27.36;43.78;38311.78;4999004;28;48147;-84
2023/04/30 10:40:45;;;;;;;;;6.00;5.00;;;;;27.41;44.27;37280.09;5017081;28;45380;-84
2023/04/30 10:43:12;;;;;;;;;6.00;6.00;;;;;27.42;44.72;38825.28;5017514;28;45936;-84
2023/04/30 10:45:42;;;;;;;;;7.00;5.75;;;;;27.33;44.62;39911.09;5018049;28;45602;-85
2023/04/30 10:48:08;;;;;;;;;7.00;7.00;;;;;27.10;44.46;40418.03;5016916;28;46002;-84
2023/04/30 10:50:42;;;;;;;;;6.67;6.67;;;;;26.99;44.09;45239.38;5017270;28;45659;-84
2023/04/30 10:53:14;;;;;;;;;3.50;3.50;;;;;26.86;44.34;44905.78;5017857;28;45451;-84
2023/04/30 10:55:57;;;;;;;;;7.00;7.00;;;;;26.70;43.70;49701.78;5017372;28;45522;-84
2023/04/30 10:58:26;;;;;;;;;6.67;5.00;;;;;26.19;43.00;54757.09;5016011;28;47052;-84
2023/04/30 11:01:07;;;;;;;;;6.33;5.00;;;;;26.19;42.59;55195.19;5017191;28;45570;-84
2023/04/30 11:03:34;;;;;;;;;4.33;4.33;;;;;25.83;42.63;58575.78;5017453;28;45498;-84
2023/04/30 11:06:06;;;;;;;;;5.00;5.00;;;;;25.66;43.38;57113.56;5017454;28;45525;-83
2023/04/30 11:08:33;;;;;;;;;7.00;4.00;;;;;25.49;44.01;56754.41;5017272;28;48242;-84
2023/04/30 11:11:00;;;;;;;;;5.00;5.00;;;;;25.34;43.86;57487.31;5017043;28;45493;-84
2023/04/30 11:13:26;;;;;;;;;7.00;5.00;;;;;25.20;43.90;58599.41;5017515;28;45452;-84
2023/04/30 11:15:52;;;;;;;;;3.33;3.33;;;;;24.89;44.28;57972.22;5017316;28;45367;-83
2023/04/30 11:18:17;;;;;;;;;4.50;3.00;;;;;25.14;43.29;59227.66;5017174;28;46228;-84
2023/04/30 11:20:53;;;;;;;;;4.00;4.00;;;;;24.98;42.84;60402.22;5016356;28;45455;-84
2023/04/30 11:23:22;;;;;;;;;4.00;4.00;;;;;25.25;42.31;61197.56;5017238;28;45424;-84
2023/04/30 11:25:48;;;;;;;;;7.00;5.00;;;;;25.30;43.06;60939.75;5017355;28;45456;-84
2023/04/30 11:28:18;;;;;;;;;6.67;3.67;;;;;25.26;42.37;61932.97;5016927;28;46021;-84
2023/04/30 11:31:00;;;;;;;;;3.50;3.25;;;;;25.18;42.67;61219.38;5017023;28;45463;-84
2023/04/30 11:33:27;;;;;;;;;4.33;3.00;;;;;25.11;42.84;61981.78;5017211;28;45893;-84
2023/04/30 11:35:54;;;;;;;;;9.00;9.00;;;;;25.06;42.96;61861.34;4998385;28;45484;-84
2023/04/30 11:38:25;;;;;;;;;5.33;3.67;;;;;25.20;43.22;61518.63;5016688;28;45544;-84
2023/04/30 11:40:50;;;;;;;;;3.67;3.67;;;;;25.10;42.43;62021.22;5016720;28;45422;-84
2023/04/30 11:43:30;;;;;;;;;2.67;2.67;;;;;25.36;42.64;61927.47;5016351;28;45462;-84
2023/04/30 11:45:58;;;;;;;;;2.00;2.00;;;;;25.60;43.07;60930.25;5017035;28;45436;-85
2023/04/30 11:48:23;;;;;;;;;4.33;4.33;;;;;25.75;42.54;62435.88;5016140;28;45629;-85
2023/04/30 11:50:49;;;;;;;;;1.25;1.25;;;;;25.81;42.94;61625.59;5015780;28;45433;-84
2023/04/30 11:53:15;;;;;;;;;3.50;3.50;;;;;25.70;41.80;63461.50;5017003;28;45813;-84
2023/04/30 11:55:40;;;;;;;;;2.00;2.00;;;;;25.59;41.72;64241.41;5017063;28;45408;-84
2023/04/30 11:58:08;;;;;;;;;1.00;1.00;;;;;25.44;42.14;64350.34;4997760;28;46956;-84
2023/04/30 12:00:33;;;;;;;;;2.67;2.33;;;;;25.00;41.19;65437.34;5016176;28;45471;-84
2023/04/30 12:03:02;;;;;;;;;3.00;3.00;;;;;25.06;41.78;65655.56;5016250;28;45479;-84
2023/04/30 12:05:27;;;;;;;;;3.00;3.00;;;;;24.73;41.13;66180.41;5016959;28;45753;-84
2023/04/30 12:07:59;;;;;;;;;2.00;2.00;;;;;24.60;41.52;66663.34;4997965;28;47414;-84
2023/04/30 12:10:24;;;;;;;;;4.00;2.67;;;;;24.36;41.58;66722.84;4997410;28;45431;-84
2023/04/30 12:12:51;;;;;;;;;4.00;4.00;;;;;24.47;40.67;67100.28;5016479;28;45380;-83
2023/04/30 12:15:25;;;;;;;;;2.00;2.00;;;;;24.31;40.67;67759.91;5016729;28;45372;-84
2023/04/30 12:17:52;;;;;;;;;2.33;2.33;;;;;24.21;40.41;68089.22;5015857;28;45464;-84
2023/04/30 12:20:20;;;;;;;;;1.75;1.75;;;;;24.54;40.39;68113.22;5016054;28;45467;-84
2023/04/30 12:22:46;;;;;;;;;3.00;3.00;;;;;24.07;41.13;67883.75;5016327;28;45490;-84
2023/04/30 12:25:13;;;;;;;;;4.00;3.00;;;;;24.75;41.46;67482.91;5016555;28;45383;-84
2023/04/30 12:27:40;;;;;;;;;5.00;3.25;;;;;24.87;41.23;67713.16;5016139;28;47425;-84
2023/04/30 12:30:07;;;;;;;;;3.67;3.67;;;;;25.04;40.92;67856.78;5016140;28;45447;-83
2023/04/30 12:32:39;;;;;;;;;2.50;2.50;;;;;24.84;41.45;67861.06;5015823;28;45615;-84
2023/04/30 12:35:05;;;;;;;;;2.50;2.50;;;;;24.90;41.38;67800.47;5016150;28;45490;-84
2023/04/30 12:37:31;;;;;;;;;5.50;4.75;;;;;25.05;41.52;67790.91;5015792;28;45749;-84
2023/04/30 12:39:56;;;;;;;;;5.00;4.00;;;;;24.81;40.88;67941.41;5015441;28;45415;-84
2023/04/30 12:42:21;;;;;;;;;1.00;0.50;;;;;24.75;40.14;68281.13;5016235;28;45475;-84
2023/04/30 12:44:47;;;;;;;;;4.00;4.00;;;;;24.70;41.18;68340.16;5015885;28;45499;-84
2023/04/30 12:47:13;;;;;;;;;5.00;3.33;;;;;24.69;40.73;68597.97;5015607;28;46034;-84
2023/04/30 12:49:39;;;;;;;;;3.33;3.33;;;;;24.71;40.37;68751.75;5015732;28;45451;-84
2023/04/30 12:52:10;;;;;;;;;3.25;2.00;;;;;24.93;40.67;68685.75;5015937;28;45495;-84
2023/04/30 12:54:36;;;;;;;;;3.25;3.25;;;;;24.64;39.95;68690.59;5016354;28;45595;-84
2023/04/30 12:57:07;;;;;;;;;3.00;2.00;;;;;24.95;40.47;68974.91;5015672;28;46487;-84
2023/04/30 12:59:38;;;;;;;;;3.75;3.75;;;;;24.57;40.55;68990.56;5015756;28;45429;-84
2023/04/30 13:02:11;;;;;;;;;3.25;3.25;;;;;24.73;40.26;69111.72;5015424;28;45496;-83
2023/04/30 13:04:37;;;;;;;;;4.75;2.00;;;;;24.53;40.46;69128.53;5016229;28;45392;-83
2023/04/30 13:07:03;;;;;;;;;13.67;12.00;;;;;24.46;41.04;69163.44;5015580;28;45492;-83
2023/04/30 13:09:29;;;;;;;;;4.00;3.00;;;;;24.34;40.65;69247.09;5015529;28;45575;-83
2023/04/30 13:11:54;;;;;;;;;4.67;4.67;;;;;23.95;41.41;68999.28;5015761;28;45459;-83
2023/04/30 13:14:19;;;;;;;;;0.00;0.00;;;;;24.02;41.08;69056.22;5015962;28;45400;-83
2023/04/30 13:16:45;;;;;;;;;2.00;2.00;;;;;23.76;41.26;69202.09;5015221;28;46258;-83
2023/04/30 13:19:10;;;;;;;;;1.00;0.00;;;;;23.78;41.43;69093.13;5015570;28;45404;-84
2023/04/30 13:21:36;;;;;;;;;2.00;1.00;;;;;23.94;41.24;69084.53;5017432;28;45430;-83
2023/04/30 13:24:01;;;;;;;;;2.75;2.75;;;;;23.58;41.61;69057.06;5019453;28;45935;-83
2023/04/30 13:26:27;;;;;;;;;2.00;2.00;;;;;23.71;41.27;69093.50;5019041;28;45704;-83
2023/04/30 13:28:53;;;;;;;;;962.25;962.00;;;;;23.51;41.80;69069.75;5018819;28;45511;-83
2023/04/30 13:31:19;;;;;;;;;1.75;1.75;;;;;23.07;41.43;69069.94;5018536;28;45414;-83
2023/04/30 13:33:44;;;;;;;;;2.00;2.00;;;;;23.33;42.12;69057.06;5019138;28;45753;-84
2023/04/30 13:36:10;;;;;;;;;2.25;2.25;;;;;23.08;41.94;68960.53;5018538;28;45473;-83
2023/04/30 13:38:35;;;;;;;;;2.50;2.50;;;;;23.07;42.23;68843.34;5018776;28;45477;-82
2023/04/30 13:41:00;;;;;;;;;3.00;2.00;;;;;22.90;41.95;68773.16;5018730;28;45393;-82
2023/04/30 13:43:26;;;;;;;;;3.00;3.00;;;;;22.99;42.21;68847.94;5019102;28;45456;-82
2023/04/30 13:45:51;;;;;;;;;4.00;3.00;;;;;22.92;42.00;68804.56;5018022;28;45736;-82
2023/04/30 13:48:17;;;;;;;;;3.33;3.33;;;;;22.75;41.61;68833.56;5018532;28;45453;-83
2023/04/30 13:50:42;;;;;;;;;3.00;3.00;;;;;22.68;42.09;68939.09;5018766;28;45976;-82
2023/04/30 13:53:07;;;;;;;;;3.00;3.00;;;;;22.66;42.09;68996.03;5019001;28;45480;-82
2023/04/30 13:55:33;;;;;;;;;2.33;2.33;;;;;22.24;41.60;68954.84;5018589;28;46147;-82
2023/04/30 13:57:59;;;;;;;;;2.00;2.00;;;;;22.59;42.00;68954.78;5018399;28;45522;-82
2023/04/30 14:00:25;;;;;;;;;4.50;3.00;;;;;22.28;41.82;69010.78;5018096;28;45384;-83
2023/04/30 14:02:50;;;;;;;;;3.67;3.00;;;;;22.02;42.14;68824.88;5018782;28;45598;-82
2023/04/30 14:05:16;;;;;;;;;0.00;0.00;;;;;22.13;42.44;68775.97;5018426;28;46255;-83
2023/04/30 14:07:42;;;;;;;;;2.00;2.00;;;;;22.20;42.60;68772.31;5018364;28;45415;-83
2023/04/30 14:10:08;;;;;;;;;3.00;3.00;;;;;22.10;42.35;68863.41;5018472;28;45383;-82
2023/04/30 14:12:33;;;;;;;;;4.00;4.00;;;;;22.32;42.77;68843.13;5000720;28;45525;-82
2023/04/30 14:14:59;;;;;;;;;4.00;4.00;;;;;22.27;42.38;68845.88;4999831;28;47577;-83
2023/04/30 14:17:28;;;;;;;;;3.00;3.00;;;;;22.22;42.05;68785.47;5017420;28;45510;-82
2023/04/30 14:19:53;;;;;;;;;1295.00;1292.33;;;;;22.08;41.91;68850.84;5018176;28;45437;-82
2023/04/30 14:22:19;;;;;;;;;4.00;2.00;;;;;21.47;42.17;68715.19;4998459;28;45371;-83
2023/04/30 14:24:44;;;;;;;;;3.75;3.00;;;;;22.08;42.25;68823.34;4997434;28;45603;-83
2023/04/30 14:27:09;;;;;;;;;3.75;3.00;;;;;22.04;42.78;68835.34;4980166;28;45603;-82
2023/04/30 14:29:35;;;;;;;;;4.50;3.00;;;;;21.78;42.25;68834.16;4980216;28;45361;-83
2023/04/30 14:32:00;;;;;;;;;1.00;1.00;;;;;21.99;42.86;68791.13;4998296;28;45915;-82
2023/04/30 14:34:26;;;;;;;;;3.33;2.33;;;;;21.90;42.48;68781.66;4998183;28;45492;-83
2023/04/30 14:36:52;;;;;;;;;2.25;2.25;;;;;21.84;42.65;68660.88;4998085;28;45436;-82
2023/04/30 14:39:17;;;;;;;;;2.00;2.00;;;;;21.67;43.33;68617.75;4997405;28;45467;-83
2023/04/30 14:41:43;;;;;;;;;4.75;2.00;;;;;21.50;43.01;68578.84;4998486;28;45893;-82
2023/04/30 14:44:09;;;;;;;;;2.25;2.25;;;;;21.66;43.11;68564.84;4997676;28;46044;-82
2023/04/30 14:46:34;;;;;;;;;1.33;1.00;;;;;21.66;42.87;68567.53;4998092;28;45428;-82
2023/04/30 14:49:00;;;;;;;;;1.00;1.00;;;;;21.51;42.92;68496.59;4998043;28;45713;-83
2023/04/30 14:51:27;;;;;;;;;2.00;2.00;;;;;21.58;43.49;68617.28;4998268;28;45487;-82
2023/04/30 14:53:53;;;;;;;;;1.50;1.00;;;;;21.79;43.24;68499.44;4997857;28;46357;-82
2023/04/30 14:56:18;;;;;;;;;3.00;2.00;;;;;21.61;42.97;68416.91;4997715;28;45549;-83
2023/04/30 14:58:43;;;;;;;;;2.00;2.00;;;;;21.42;42.60;68443.53;4997676;28;45721;-82
2023/04/30 15:01:09;;;;;;;;;1.50;1.50;;;;;21.57;43.15;68484.25;4997955;28;45735;-83
2023/04/30 15:03:34;;;;;;;;;1.00;1.00;;;;;21.76;42.74;68482.44;4997484;28;46282;-82
2023/04/30 15:06:00;;;;;;;;;1.00;1.00;;;;;21.77;43.35;68456.69;4996236;28;48188;-83
2023/04/30 15:08:25;;;;;;;;;1.00;1.00;;;;;21.68;42.79;68432.63;4997786;28;45452;-82
2023/04/30 15:10:50;;;;;;;;;1.00;1.00;;;;;21.57;43.17;68455.25;4997863;28;45452;-82
2023/04/30 15:13:16;;;;;;;;;3.00;2.00;;;;;21.56;43.25;68489.03;4997313;28;45501;-82
2023/04/30 15:15:41;;;;;;;;;2.00;2.00;;;;;21.77;43.21;68402.28;4997396;28;45536;-83
2023/04/30 15:18:09;;;;;;;;;1.75;1.75;;;;;21.78;43.25;68369.06;4997429;28;45458;-82
2023/04/30 15:20:34;;;;;;;;;1.00;1.00;;;;;21.84;43.31;68424.00;4997852;28;45603;-83
2023/04/30 15:23:00;;;;;;;;;1.75;1.75;;;;;21.58;43.56;68381.09;4997221;28;46951;-83